createdAt,value
2024-01-15T00:02:20.083Z,101323.63
2024-01-15T00:04:49.930Z,101313.44
2024-01-15T00:07:20.910Z,101315.00
2024-01-15T00:09:52.446Z,101312.50
2024-01-15T00:12:23.080Z,101320.06
2024-01-15T00:14:53.944Z,101322.13
2024-01-15T00:17:24.240Z,101325.44
2024-01-15T00:19:55.204Z,101324.81
2024-01-15T00:22:28.687Z,101319.75
2024-01-15T00:24:58.597Z,101324.06
2024-01-15T00:27:28.714Z,101324.66
2024-01-15T00:29:58.610Z,101316.16
2024-01-15T00:32:28.727Z,101316.41
2024-01-15T00:34:58.670Z,101317.47
2024-01-15T00:37:28.427Z,101324.53
2024-01-15T00:39:59.267Z,101326.91
2024-01-15T00:42:29.317Z,101333.03
2024-01-15T00:44:59.152Z,101318.66
2024-01-15T00:47:29.219Z,101315.31
2024-01-15T00:50:01.422Z,101307.75
2024-01-15T00:52:31.268Z,101308.09
2024-01-15T00:55:01.388Z,101310.47
2024-01-15T00:57:33.425Z,101315.69
2024-01-15T01:00:06.531Z,101303.63
2024-01-15T01:02:37.361Z,101299.94
2024-01-15T01:05:07.657Z,101302.63
2024-01-15T01:07:37.900Z,101303.31
2024-01-15T01:10:08.960Z,101294.22
2024-01-15T01:12:41.652Z,101290.34
2024-01-15T01:15:11.682Z,101296.25
2024-01-15T01:17:41.470Z,101286.47
2024-01-15T01:20:14.158Z,101288.50
2024-01-15T01:22:45.180Z,101290.88
2024-01-15T01:25:15.361Z,101293.38
2024-01-15T01:27:45.483Z,101283.94
2024-01-15T01:30:15.769Z,101280.75
2024-01-15T01:32:45.869Z,101276.03
2024-01-15T01:35:16.185Z,101279.91
2024-01-15T01:37:46.805Z,101275.00
2024-01-15T01:40:17.156Z,101284.81
2024-01-15T01:42:47.445Z,101284.09
2024-01-15T01:45:17.790Z,101287.66
2024-01-15T01:47:47.808Z,101292.72
2024-01-15T01:50:17.904Z,101283.28
2024-01-15T01:52:51.164Z,101297.41
2024-01-15T01:55:21.809Z,101289.13
2024-01-15T01:57:51.790Z,101287.28
2024-01-15T02:00:22.028Z,101288.13
2024-01-15T02:02:54.853Z,101288.63
2024-01-15T02:05:24.864Z,101278.97
2024-01-15T02:07:54.961Z,101270.53
2024-01-15T02:10:25.776Z,101277.28
2024-01-15T02:12:56.495Z,101269.69
2024-01-15T02:15:26.774Z,101260.75
2024-01-15T02:18:01.242Z,101270.84
2024-01-15T02:20:31.413Z,101272.19
2024-01-15T02:23:14.661Z,101271.53
2024-01-15T02:25:53.430Z,101262.56
2024-01-15T02:28:23.262Z,101270.47
2024-01-15T02:30:53.479Z,101265.44
2024-01-15T02:33:27.541Z,101260.69
2024-01-15T02:35:57.597Z,101258.00
2024-01-15T02:38:27.583Z,101259.53
2024-01-15T02:40:57.670Z,101249.03
2024-01-15T02:43:27.641Z,101246.38
2024-01-15T02:45:57.392Z,101246.53
2024-01-15T02:48:27.466Z,101245.84
2024-01-15T02:50:57.469Z,101242.44
2024-01-15T02:53:27.410Z,101241.09
2024-01-15T02:55:57.396Z,101237.50
2024-01-15T02:58:27.521Z,101239.03
2024-01-15T03:00:57.617Z,101225.31
2024-01-15T03:03:28.012Z,101227.47
2024-01-15T03:05:58.142Z,101228.81
2024-01-15T03:08:28.390Z,101238.28
2024-01-15T03:10:59.268Z,101235.53
2024-01-15T03:13:30.148Z,101235.88
2024-01-15T03:16:00.733Z,101234.50
2024-01-15T03:18:30.886Z,101226.75
2024-01-15T03:21:03.408Z,101233.13
2024-01-15T03:23:33.301Z,101226.72
2024-01-15T03:26:03.617Z,101241.22
2024-01-15T03:28:33.551Z,101229.53
2024-01-15T03:31:03.479Z,101226.69
2024-01-15T03:33:34.079Z,101218.22
2024-01-15T03:36:13.047Z,101210.94
2024-01-15T03:38:44.327Z,101212.81
2024-01-15T03:41:14.506Z,101207.34
2024-01-15T03:43:45.186Z,101207.72
2024-01-15T03:46:15.010Z,101228.38
2024-01-15T03:48:44.905Z,101208.44
2024-01-15T03:51:14.951Z,101214.19
2024-01-15T03:53:44.857Z,101211.50
2024-01-15T03:56:14.892Z,101198.97
2024-01-15T03:58:44.793Z,101201.66
2024-01-15T04:01:14.941Z,101198.97
2024-01-15T04:03:47.921Z,101191.44
2024-01-15T04:06:18.143Z,101188.00
2024-01-15T04:08:48.076Z,101175.25
2024-01-15T04:11:18.053Z,101172.94
2024-01-15T04:13:48.141Z,101177.63
2024-01-15T04:16:18.317Z,101174.84
2024-01-15T04:18:52.173Z,101156.13
2024-01-15T04:21:22.450Z,101151.53
2024-01-15T04:23:53.281Z,101149.88
2024-01-15T04:26:23.712Z,101141.09
2024-01-15T04:28:53.699Z,101147.00
2024-01-15T04:31:29.459Z,101135.50
2024-01-15T04:33:59.655Z,101126.59
2024-01-15T04:36:29.961Z,101123.41
2024-01-15T04:39:00.011Z,101122.38
2024-01-15T04:41:38.769Z,101113.44
2024-01-15T04:44:08.771Z,101113.63
2024-01-15T04:46:38.573Z,101099.06
2024-01-15T04:49:08.594Z,101090.97
2024-01-15T04:51:38.682Z,101079.34
2024-01-15T04:54:08.722Z,101072.31
2024-01-15T04:56:38.405Z,101066.91
2024-01-15T04:59:08.750Z,101063.56
2024-01-15T05:01:38.424Z,101058.16
2024-01-15T05:04:10.045Z,101053.22
2024-01-15T05:06:40.054Z,101043.31
2024-01-15T05:09:18.006Z,101041.06
2024-01-15T05:11:48.202Z,101035.94
2024-01-15T05:14:18.162Z,101032.63
2024-01-15T05:16:52.680Z,101027.44
2024-01-15T05:19:22.792Z,101016.41
2024-01-15T05:21:53.339Z,101019.88
2024-01-15T05:24:23.715Z,101019.75
2024-01-15T05:26:54.753Z,101011.25
2024-01-15T05:29:25.193Z,101010.34
2024-01-15T05:31:55.748Z,101002.09
2024-01-15T05:34:28.721Z,101008.81
2024-01-15T05:36:58.856Z,100995.78
2024-01-15T05:39:28.998Z,100997.31
2024-01-15T05:42:01.581Z,100995.00
2024-01-15T05:44:31.533Z,100990.69
2024-01-15T05:47:02.058Z,100982.94
2024-01-15T05:49:32.476Z,100984.06
2024-01-15T05:52:05.163Z,100980.81
2024-01-15T05:54:35.118Z,100984.94
2024-01-15T05:57:06.468Z,100985.09
2024-01-15T05:59:38.298Z,100980.69
2024-01-15T06:02:17.116Z,100970.06
2024-01-15T06:04:47.813Z,100965.25
2024-01-15T06:07:17.616Z,100970.41
2024-01-15T06:09:47.328Z,100975.19
2024-01-15T06:12:17.322Z,100965.31
2024-01-15T06:14:47.422Z,100960.81
2024-01-15T06:17:18.030Z,100966.81
2024-01-15T06:19:47.947Z,100971.81
2024-01-15T06:22:17.907Z,100962.44
2024-01-15T06:24:48.641Z,100961.16
2024-01-15T06:27:18.759Z,100963.50
2024-01-15T06:29:50.865Z,100958.94
2024-01-15T06:32:21.380Z,100948.13
2024-01-15T06:34:52.077Z,100945.75
2024-01-15T06:37:22.501Z,100950.97
2024-01-15T06:39:52.606Z,100964.94
2024-01-15T06:42:24.113Z,100943.81
2024-01-15T06:44:54.098Z,100944.72
2024-01-15T06:47:24.142Z,100936.81
2024-01-15T06:49:54.571Z,100938.09
2024-01-15T06:52:24.646Z,100932.28
2024-01-15T06:54:54.422Z,100940.81
2024-01-15T06:57:24.506Z,100941.56
2024-01-15T06:59:54.471Z,100940.13
2024-01-15T07:02:24.471Z,100939.00
2024-01-15T07:04:54.811Z,100943.78
2024-01-15T07:07:24.790Z,100937.16
2024-01-15T07:09:54.725Z,100936.13
2024-01-15T07:12:25.350Z,100938.50
2024-01-15T07:14:55.204Z,100942.31
2024-01-15T07:17:25.630Z,100940.25
2024-01-15T07:19:55.685Z,100944.13
2024-01-15T07:22:25.629Z,100958.06
2024-01-15T07:24:56.697Z,100946.59
2024-01-15T07:27:27.335Z,100951.75
2024-01-15T07:30:00.040Z,100953.97
2024-01-15T07:32:40.215Z,100959.41
2024-01-15T07:35:10.503Z,100957.53
2024-01-15T07:37:40.580Z,100961.28
2024-01-15T07:40:11.217Z,100975.19
2024-01-15T07:42:41.550Z,100975.44
2024-01-15T07:45:13.104Z,100978.78
2024-01-15T07:47:43.554Z,100981.50
2024-01-15T07:50:14.023Z,100974.59
2024-01-15T07:52:46.706Z,100977.75
2024-01-15T07:55:17.145Z,100975.69
2024-01-15T07:57:53.378Z,100994.38
2024-01-15T08:00:28.803Z,100996.69
2024-01-15T08:02:59.069Z,101001.91
2024-01-15T08:05:30.263Z,100998.00
2024-01-15T08:08:02.240Z,100995.06
2024-01-15T08:10:32.792Z,101005.19
2024-01-15T08:13:02.790Z,101001.84
2024-01-15T08:15:32.704Z,101009.72
2024-01-15T08:18:02.587Z,101032.00
2024-01-15T08:20:35.168Z,101014.09
2024-01-15T08:23:05.449Z,101015.75
2024-01-15T08:25:35.564Z,101013.69
2024-01-15T08:28:07.370Z,101023.22
2024-01-15T08:30:38.292Z,101025.72
2024-01-15T08:33:18.441Z,101033.66
2024-01-15T08:35:51.586Z,101027.22
2024-01-15T08:38:22.508Z,101038.69
2024-01-15T08:40:53.228Z,101045.00
2024-01-15T08:43:23.154Z,101050.81
2024-01-15T08:45:53.285Z,101057.03
2024-01-15T08:48:23.510Z,101059.47
2024-01-15T08:50:53.580Z,101056.88
2024-01-15T08:53:23.959Z,101068.06
2024-01-15T08:55:54.366Z,101066.31
2024-01-15T08:58:27.220Z,101072.75
2024-01-15T09:00:57.528Z,101075.84
2024-01-15T09:03:28.056Z,101089.94
2024-01-15T09:05:58.336Z,101082.00
2024-01-15T09:08:47.429Z,101082.09
2024-01-15T09:11:17.623Z,101086.03
2024-01-15T09:13:47.540Z,101085.56
2024-01-15T09:16:18.111Z,101093.00
2024-01-15T09:18:49.183Z,101097.13
2024-01-15T09:21:19.217Z,101099.53
2024-01-15T09:23:49.045Z,101104.13
2024-01-15T09:26:18.903Z,101102.31
2024-01-15T09:28:49.047Z,101105.97
2024-01-15T09:31:22.658Z,101116.56
2024-01-15T09:33:58.323Z,101120.28
2024-01-15T09:36:29.309Z,101115.25
2024-01-15T09:39:01.969Z,101125.41
2024-01-15T09:41:32.025Z,101112.91
2024-01-15T09:44:01.992Z,101120.38
2024-01-15T09:46:32.902Z,101133.88
2024-01-15T09:49:04.217Z,101143.38
2024-01-15T09:51:35.779Z,101136.78
2024-01-15T09:54:06.203Z,101136.50
2024-01-15T09:56:36.455Z,101143.09
2024-01-15T09:59:06.809Z,101144.50
2024-01-15T10:01:39.455Z,101147.22
2024-01-15T10:04:09.868Z,101148.22
2024-01-15T10:06:41.541Z,101149.63
2024-01-15T10:09:16.639Z,101160.78
2024-01-15T10:11:47.290Z,101161.16
2024-01-15T10:14:17.464Z,101167.00
2024-01-15T10:16:57.587Z,101157.97
2024-01-15T10:19:27.775Z,101166.91
2024-01-15T10:21:58.530Z,101156.66
2024-01-15T10:24:30.727Z,101163.91
2024-01-15T10:27:13.822Z,101163.91
2024-01-15T10:29:45.180Z,101174.34
2024-01-15T10:32:15.207Z,101182.81
2024-01-15T10:34:45.377Z,101177.78
2024-01-15T10:37:17.532Z,101177.63
2024-01-15T10:39:49.536Z,101177.44
2024-01-15T10:42:22.859Z,101183.22
2024-01-15T10:44:55.253Z,101187.59
2024-01-15T10:47:25.961Z,101186.28
2024-01-15T10:49:56.307Z,101185.59
2024-01-15T10:52:26.500Z,101187.66
2024-01-15T10:54:57.007Z,101172.94
2024-01-15T10:57:29.182Z,101179.72
2024-01-15T11:00:00.772Z,101189.69
2024-01-15T11:02:31.585Z,101182.97
2024-01-15T11:05:02.082Z,101182.97
2024-01-15T11:07:35.380Z,101182.97
2024-01-15T11:10:10.692Z,101199.69
2024-01-15T11:12:44.663Z,101193.75
2024-01-15T11:15:23.176Z,101195.81
2024-01-15T11:18:07.710Z,101204.25
2024-01-15T11:21:19.077Z,101186.03
2024-01-15T11:24:00.552Z,101200.22
2024-01-15T11:26:36.915Z,101203.94
2024-01-15T11:29:09.106Z,101214.75
2024-01-15T11:31:42.234Z,101223.84
2024-01-15T11:34:14.375Z,101223.00
2024-01-15T11:36:56.593Z,101217.81
2024-01-15T11:39:30.045Z,101227.81
2024-01-15T11:42:01.911Z,101219.84
2024-01-15T11:44:32.826Z,101217.50
2024-01-15T11:47:07.939Z,101229.78
2024-01-15T11:49:59.866Z,101230.44
2024-01-15T11:52:35.630Z,101236.38
2024-01-15T11:55:41.068Z,101228.94
2024-01-15T11:58:12.193Z,101224.56
2024-01-15T12:00:51.649Z,101225.94
2024-01-15T12:03:27.952Z,101236.91
2024-01-15T12:05:58.018Z,101251.59
2024-01-15T12:08:30.197Z,101227.31
2024-01-15T12:11:02.339Z,101235.41
2024-01-15T12:13:32.822Z,101241.47
2024-01-15T12:16:06.286Z,101239.78
2024-01-15T12:18:37.210Z,101241.47
2024-01-15T12:21:08.282Z,101242.97
2024-01-15T12:23:51.349Z,101239.44
2024-01-15T12:26:21.821Z,101244.81
2024-01-15T12:28:55.538Z,101248.53
2024-01-15T12:31:27.118Z,101254.28
2024-01-15T12:33:58.903Z,101258.88
2024-01-15T12:36:29.426Z,101233.91
2024-01-15T12:39:02.507Z,101239.78
2024-01-15T12:41:37.489Z,101251.13
2024-01-15T12:44:07.651Z,101247.41
2024-01-15T12:46:40.153Z,101248.41
2024-01-15T12:49:11.586Z,101254.63
2024-01-15T12:51:43.251Z,101257.03
2024-01-15T12:54:14.256Z,101264.09
2024-01-15T12:56:44.199Z,101265.78
2024-01-15T12:59:18.387Z,101265.78
2024-01-15T13:01:49.191Z,101274.53
2024-01-15T13:04:26.676Z,101271.84
2024-01-15T13:06:56.973Z,101274.06
2024-01-15T13:09:27.103Z,101271.53
2024-01-15T13:11:57.175Z,101278.91
2024-01-15T13:14:28.014Z,101273.88
2024-01-15T13:16:59.027Z,101271.19
2024-01-15T13:19:29.872Z,101274.53
2024-01-15T13:22:02.429Z,101276.25
2024-01-15T13:24:32.521Z,101275.44
2024-01-15T13:27:02.544Z,101265.13
2024-01-15T13:29:32.503Z,101269.34
2024-01-15T13:32:04.806Z,101259.72
2024-01-15T13:34:35.776Z,101258.34
2024-01-15T13:37:08.410Z,101267.66
2024-01-15T13:39:38.916Z,101272.19
2024-01-15T13:42:08.875Z,101265.47
2024-01-15T13:44:38.863Z,101249.63
2024-01-15T13:47:08.861Z,101251.84
2024-01-15T13:49:40.785Z,101259.09
2024-01-15T13:52:10.763Z,101271.91
2024-01-15T13:54:48.431Z,101253.38
2024-01-15T13:57:29.655Z,101246.47
2024-01-15T14:00:00.343Z,101245.28
2024-01-15T14:02:30.423Z,101236.53
2024-01-15T14:05:00.910Z,101242.59
2024-01-15T14:07:33.863Z,101239.41
2024-01-15T14:10:20.440Z,101231.81
2024-01-15T14:12:50.911Z,101260.13
2024-01-15T14:15:25.577Z,101250.69
2024-01-15T14:17:55.579Z,101251.22
2024-01-15T14:20:25.297Z,101244.81
2024-01-15T14:22:55.395Z,101252.75
2024-01-15T14:25:29.045Z,101238.91
2024-01-15T14:27:58.908Z,101234.88
2024-01-15T14:30:28.934Z,101230.47
2024-01-15T14:33:01.965Z,101221.72
2024-01-15T14:35:31.991Z,101229.47
2024-01-15T14:38:20.567Z,101224.41
2024-01-15T14:40:51.381Z,101222.25
2024-01-15T14:43:22.071Z,101226.78
2024-01-15T14:45:52.040Z,101235.41
2024-01-15T14:48:22.060Z,101235.72
2024-01-15T14:50:52.744Z,101232.16
2024-01-15T14:53:23.451Z,101222.25
2024-01-15T14:55:56.694Z,101224.63
2024-01-15T14:58:26.766Z,101210.78
2024-01-15T15:00:58.175Z,101214.31
2024-01-15T15:03:28.530Z,101214.31
2024-01-15T15:05:59.064Z,101208.91
2024-01-15T15:08:29.023Z,101206.25
2024-01-15T15:10:59.231Z,101199.53
2024-01-15T15:13:38.007Z,101199.53
2024-01-15T15:16:15.669Z,101196.53
2024-01-15T15:18:48.265Z,101207.66
2024-01-15T15:21:18.725Z,101202.06
2024-01-15T15:23:54.916Z,101207.97
2024-01-15T15:26:24.835Z,101207.47
2024-01-15T15:28:55.788Z,101206.63
2024-01-15T15:31:27.620Z,101204.28
2024-01-15T15:33:57.645Z,101209.66
2024-01-15T15:36:28.355Z,101214.72
2024-01-15T15:39:00.388Z,101209.69
2024-01-15T15:41:30.602Z,101211.19
2024-01-15T15:44:00.423Z,101206.31
2024-01-15T15:46:30.608Z,101203.63
2024-01-15T15:49:03.117Z,101205.47
2024-01-15T15:51:35.373Z,101214.41
2024-01-15T15:54:07.355Z,101216.25
2024-01-15T15:56:42.271Z,101215.41
2024-01-15T15:59:12.074Z,101212.38
2024-01-15T16:01:44.481Z,101215.09
2024-01-15T16:04:14.751Z,101204.31
2024-01-15T16:06:45.117Z,101205.31
2024-01-15T16:09:18.269Z,101195.91
2024-01-15T16:11:48.963Z,101197.56
2024-01-15T16:14:19.919Z,101186.97
2024-01-15T16:23:13.055Z,101192.19
2024-01-15T16:23:26.622Z,101185.81
2024-01-15T16:23:42.381Z,101191.84
2024-01-15T16:25:25.381Z,101176.53
2024-01-15T16:27:55.440Z,101173.34
2024-01-15T16:30:30.328Z,101167.28
2024-01-15T16:33:07.417Z,101175.19
2024-01-15T16:35:38.239Z,101169.31
2024-01-15T16:38:08.567Z,101174.34
2024-01-15T16:40:40.221Z,101171.66
2024-01-15T16:43:11.157Z,101166.97
2024-01-15T16:45:41.787Z,101166.09
2024-01-15T16:48:11.937Z,101157.19
2024-01-15T16:50:42.305Z,101168.31
2024-01-15T16:53:12.214Z,101176.88
2024-01-15T16:55:42.181Z,101172.16
2024-01-15T16:58:12.057Z,101181.41
2024-01-15T17:00:41.860Z,101174.53
2024-01-15T17:03:11.757Z,101170.31
2024-01-15T17:05:43.321Z,101163.91
2024-01-15T17:08:13.631Z,101167.91
2024-01-15T17:10:43.587Z,101171.63
2024-01-15T17:13:13.882Z,101163.88
2024-01-15T17:15:43.917Z,101161.72
2024-01-15T17:18:13.993Z,101152.44
2024-01-15T17:20:47.913Z,101154.81
2024-01-15T17:23:17.955Z,101151.75
2024-01-15T17:25:47.832Z,101146.25
2024-01-15T17:28:17.524Z,101151.75
2024-01-15T17:30:48.858Z,101153.44
2024-01-15T17:33:23.252Z,101152.06
2024-01-15T17:35:54.925Z,101140.66
2024-01-15T17:38:27.904Z,101148.25
2024-01-15T17:40:57.816Z,101145.56
2024-01-15T17:43:28.336Z,101147.69
2024-01-15T17:46:02.708Z,101148.06
2024-01-15T17:48:37.186Z,101148.03
2024-01-15T17:51:08.128Z,101148.53
2024-01-15T17:53:37.956Z,101145.72
2024-01-15T17:56:07.859Z,101157.00
2024-01-15T17:58:37.738Z,101142.69
2024-01-15T18:01:10.130Z,101148.09
2024-01-15T18:03:41.415Z,101141.69
2024-01-15T18:06:13.731Z,101148.41
2024-01-15T18:08:43.904Z,101150.97
2024-01-15T18:11:21.092Z,101148.41
2024-01-15T18:13:51.524Z,101151.13
2024-01-15T18:16:27.523Z,101148.63
2024-01-15T18:18:58.231Z,101145.56
2024-01-15T18:21:28.916Z,101140.19
2024-01-15T18:23:58.790Z,101140.53
2024-01-15T18:26:30.895Z,101148.94
2024-01-15T18:29:01.118Z,101141.34
2024-01-15T18:31:32.026Z,101138.66
2024-01-15T18:34:02.284Z,101138.66
2024-01-15T18:36:32.371Z,101139.00
2024-01-15T18:39:07.963Z,101137.50
2024-01-15T18:41:38.352Z,101149.09
2024-01-15T18:44:09.164Z,101140.34
2024-01-15T18:46:39.762Z,101138.66
2024-01-15T18:49:20.285Z,101134.28
2024-01-15T18:51:54.468Z,101125.88
2024-01-15T18:54:25.145Z,101130.09
2024-01-15T18:56:55.349Z,101124.72
2024-01-15T18:59:26.233Z,101125.22
2024-01-15T19:01:56.071Z,101115.97
2024-01-15T19:04:26.807Z,101122.16
2024-01-15T19:06:56.616Z,101129.91
2024-01-15T19:09:27.937Z,101125.88
2024-01-15T19:11:58.008Z,101128.56
2024-01-15T19:14:28.681Z,101124.19
2024-01-15T19:16:59.652Z,101136.31
2024-01-15T19:19:30.680Z,101120.16
2024-01-15T19:22:00.625Z,101119.13
2024-01-15T19:24:30.510Z,101121.34
2024-01-15T19:27:00.482Z,101127.72
2024-01-15T19:29:33.703Z,101130.91
2024-01-15T19:32:05.201Z,101123.69
2024-01-15T19:34:35.353Z,101125.88
2024-01-15T19:37:06.574Z,101127.16
2024-01-15T19:39:36.445Z,101125.16
2024-01-15T19:42:06.599Z,101119.09
2024-01-15T19:44:36.472Z,101108.84
2024-01-15T19:47:06.369Z,101112.72
2024-01-15T19:49:36.406Z,101114.06
2024-01-15T19:52:07.062Z,101119.44
2024-01-15T19:54:37.683Z,101119.13
2024-01-15T19:57:16.241Z,101121.13
2024-01-15T19:59:46.231Z,101121.13
2024-01-15T20:02:16.329Z,101117.06
2024-01-15T20:04:46.646Z,101129.03
2024-01-15T20:07:16.464Z,101130.22
2024-01-15T20:09:48.206Z,101123.66
2024-01-15T20:12:18.407Z,101122.63
2024-01-15T20:14:48.235Z,101130.38
2024-01-15T20:17:21.836Z,101124.47
2024-01-15T20:19:52.392Z,101119.94
2024-01-15T20:22:22.401Z,101119.78
2024-01-15T20:24:53.242Z,101122.47
2024-01-15T20:27:23.814Z,101119.78
2024-01-15T20:29:53.976Z,101119.44
2024-01-15T20:32:26.760Z,101124.50
2024-01-15T20:34:56.884Z,101121.13
2024-01-15T20:37:26.894Z,101123.47
2024-01-15T20:39:56.933Z,101122.66
2024-01-15T20:42:28.080Z,101123.47
2024-01-15T20:44:58.176Z,101127.19
2024-01-15T20:47:28.264Z,101117.78
2024-01-15T20:49:58.170Z,101131.19
2024-01-15T20:52:28.576Z,101132.22
2024-01-15T20:54:58.269Z,101133.56
2024-01-15T20:57:28.065Z,101131.38
2024-01-15T20:59:57.969Z,101130.66
2024-01-15T21:02:27.987Z,101140.59
2024-01-15T21:04:57.971Z,101141.31
2024-01-15T21:07:29.883Z,101151.53
2024-01-15T21:09:59.689Z,101148.00
2024-01-15T21:12:29.604Z,101142.97
2024-01-15T21:14:59.445Z,101143.47
2024-01-15T21:17:29.382Z,101150.38
2024-01-15T21:20:00.676Z,101155.44
2024-01-15T21:22:30.853Z,101161.13
2024-01-15T21:25:00.621Z,101147.50
2024-01-15T21:27:31.095Z,101154.41
2024-01-15T21:30:01.504Z,101154.06
2024-01-15T21:32:31.451Z,101146.69
2024-01-15T21:35:03.053Z,101150.19
2024-01-15T21:37:33.309Z,101150.88
2024-01-15T21:40:05.150Z,101152.38
2024-01-15T21:42:46.438Z,101163.28
2024-01-15T21:45:16.644Z,101171.69
2024-01-15T21:47:46.442Z,101158.59
2024-01-15T21:50:16.571Z,101159.25
2024-01-15T21:52:51.525Z,101165.34
2024-01-15T21:55:24.062Z,101172.22
2024-01-15T21:57:54.623Z,101186.34
2024-01-15T22:00:24.433Z,101187.34
2024-01-15T22:02:55.156Z,101191.53
2024-01-15T22:05:25.176Z,101195.03
2024-01-15T22:07:55.092Z,101193.34
2024-01-15T22:10:25.004Z,101195.06
2024-01-15T22:12:54.891Z,101201.72
2024-01-15T22:15:25.310Z,101205.47
2024-01-15T22:17:57.633Z,101199.38
2024-01-15T22:20:27.621Z,101200.41
2024-01-15T22:22:59.998Z,101211.31
2024-01-15T22:25:30.157Z,101212.88
2024-01-15T22:28:00.241Z,101213.53
2024-01-15T22:30:31.852Z,101212.00
2024-01-15T22:33:02.801Z,101222.25
2024-01-15T22:35:33.332Z,101211.69
2024-01-15T22:38:03.288Z,101217.19
2024-01-15T22:40:36.210Z,101212.19
2024-01-15T22:43:06.520Z,101218.94
2024-01-15T22:45:37.319Z,101218.59
2024-01-15T22:48:08.124Z,101231.69
2024-01-15T22:50:41.151Z,101234.06
2024-01-15T22:53:11.625Z,101233.22
2024-01-15T22:55:41.714Z,101238.78
2024-01-15T22:58:11.384Z,101231.69
2024-01-15T23:00:45.868Z,101243.13
2024-01-15T23:03:16.273Z,101251.19
2024-01-15T23:05:46.551Z,101252.25
2024-01-15T23:08:16.737Z,101254.91
2024-01-15T23:10:50.168Z,101258.72
2024-01-15T23:13:20.283Z,101264.19
2024-01-15T23:15:52.852Z,101273.38
2024-01-15T23:18:22.827Z,101276.00
2024-01-15T23:20:52.825Z,101282.94
2024-01-15T23:23:22.704Z,101292.22
2024-01-15T23:25:52.539Z,101291.53
2024-01-15T23:28:22.452Z,101295.00
2024-01-15T23:30:52.367Z,101291.63
2024-01-15T23:33:22.688Z,101297.56
2024-01-15T23:35:55.154Z,101303.13
2024-01-15T23:38:26.590Z,101314.56
2024-01-15T23:40:58.239Z,101318.78
2024-01-15T23:43:28.440Z,101333.16
2024-01-15T23:46:10.066Z,101319.06
2024-01-15T23:48:44.410Z,101325.81
2024-01-15T23:51:14.478Z,101336.25
2024-01-15T23:53:44.796Z,101336.25
2024-01-15T23:56:16.208Z,101339.63
2024-01-15T23:58:46.997Z,101341.31
